Time;durP1;ratioP1;P1;durP2;ratioP2;P2;SDS_P1;SDS_P2;PMS_P1;PMS_P2;Temp;Humidity;BMP_temperature;BMP_pressure;BME280_temperature;BME280_humidity;BME280_pressure;Samples;Min_cycle;Max_cycle;Signal;HPM_P1;HPM_P2
2022/04/14 00:00:41;;;;;;;2.40;2.20;;;;;;;12.34;55.47;98872.41;5111368;28;39976;-77
2022/04/14 00:03:08;;;;;;;5.23;2.20;;;;;;;12.33;55.37;98871.53;5094398;28;41743;-77
2022/04/14 00:05:36;;;;;;;2.63;2.43;;;;;;;12.31;55.71;98862.84;5128602;27;44067;-76
2022/04/14 00:08:05;;;;;;;2.90;2.60;;;;;;;12.33;56.17;98866.22;5094092;28;41398;-77
2022/04/14 00:10:33;;;;;;;3.60;2.70;;;;;;;12.22;55.92;98844.88;5107885;27;39981;-77
2022/04/14 00:13:00;;;;;;;3.80;2.57;;;;;;;12.32;55.87;98858.38;5074101;28;40676;-77
2022/04/14 00:15:28;;;;;;;4.20;2.90;;;;;;;12.37;56.52;98857.06;5090811;28;43653;-76
2022/04/14 00:17:56;;;;;;;3.40;2.93;;;;;;;12.37;56.67;98851.75;5100083;28;43259;-77
2022/04/14 00:20:23;;;;;;;4.23;2.53;;;;;;;12.28;57.30;98831.16;5111151;28;40606;-76
2022/04/14 00:22:51;;;;;;;4.87;2.93;;;;;;;12.40;57.07;98856.88;5094521;28;40856;-77
2022/04/14 00:25:20;;;;;;;2.80;2.60;;;;;;;12.41;56.87;98841.78;5111022;28;43764;-76
2022/04/14 00:27:48;;;;;;;3.10;2.80;;;;;;;12.39;56.60;98843.69;5094192;28;41297;-77
2022/04/14 00:30:15;;;;;;;2.67;2.20;;;;;;;12.39;56.57;98847.19;5112078;28;39883;-76
2022/04/14 00:32:43;;;;;;;3.87;3.00;;;;;;;12.39;56.90;98844.53;5112168;28;42650;-76
2022/04/14 00:35:10;;;;;;;2.67;2.47;;;;;;;12.38;56.83;98848.16;5112570;28;43779;-76
2022/04/14 00:37:39;;;;;;;4.73;3.00;;;;;;;12.26;56.97;98821.59;5095875;28;42239;-76
2022/04/14 00:40:07;;;;;;;5.00;3.43;;;;;;;12.39;58.42;98833.06;5074275;28;38861;-76
2022/04/14 00:42:36;;;;;;;4.67;2.97;;;;;;;12.39;58.11;98839.22;5091397;28;42610;-76
2022/04/14 00:45:05;;;;;;;5.10;3.37;;;;;;;12.40;57.88;98838.28;5090735;28;42894;-76
2022/04/14 00:47:33;;;;;;;5.37;3.03;;;;;;;12.40;57.46;98834.78;5058403;28;41075;-77
2022/04/14 00:50:00;;;;;;;2.23;2.00;;;;;;;12.38;57.94;98837.53;5074176;28;38803;-77
2022/04/14 00:52:28;;;;;;;3.17;2.53;;;;;;;12.22;58.39;98813.03;5089709;28;40741;-77
2022/04/14 00:54:55;;;;;;;3.47;2.80;;;;;;;12.32;58.27;98839.78;5090251;28;42385;-77
2022/04/14 00:57:23;;;;;;;3.80;2.80;;;;;;;12.29;57.83;98834.69;5073298;28;42534;-76
2022/04/14 00:59:52;;;;;;;5.07;2.97;;;;;;;12.25;58.16;98834.03;5089077;28;40197;-76
2022/04/14 01:02:20;;;;;;;4.17;2.83;;;;;;;12.17;58.54;98828.41;5090378;28;40652;-77
2022/04/14 01:04:49;;;;;;;4.20;2.70;;;;;;;12.17;59.92;98833.72;5089771;28;41646;-77
2022/04/14 01:07:17;;;;;;;5.40;3.57;;;;;;;12.10;60.80;98832.47;5090032;28;42286;-76
2022/04/14 01:09:47;;;;;;;3.77;3.20;;;;;;;12.08;60.51;98834.38;5072879;28;39412;-76
2022/04/14 01:12:15;;;;;;;3.80;3.40;;;;;;;11.94;59.80;98821.19;5072950;28;40564;-77
2022/04/14 01:14:43;;;;;;;3.33;2.60;;;;;;;11.99;59.66;98842.97;5089720;28;44378;-76
2022/04/14 01:17:12;;;;;;;3.27;2.60;;;;;;;11.57;60.11;98786.53;5090308;28;41424;-77
2022/04/14 01:19:40;;;;;;;4.40;3.00;;;;;;;11.88;60.10;98851.63;5077281;28;39086;-77
2022/04/14 01:22:12;;;;;;;3.90;2.53;;;;;;;11.77;59.78;98840.91;5073801;28;41204;-76
2022/04/14 01:24:42;;;;;;;4.70;2.93;;;;;;;11.66;59.74;98843.41;5090610;28;41806;-76
2022/04/14 01:27:10;;;;;;;4.30;3.13;;;;;;;11.71;59.69;98858.06;5073574;28;41405;-76
2022/04/14 01:29:38;;;;;;;4.57;2.73;;;;;;;11.52;59.82;98846.97;5110269;28;40803;-76
2022/04/14 01:32:07;;;;;;;3.97;2.77;;;;;;;11.56;59.53;98852.94;5110730;28;40908;-77
2022/04/14 01:34:35;;;;;;;3.37;2.60;;;;;;;11.48;60.04;98853.44;5112045;28;43691;-76
2022/04/14 01:37:02;;;;;;;4.13;3.30;;;;;;;11.26;60.29;98839.88;5111103;28;42166;-76
2022/04/14 01:39:31;;;;;;;4.10;3.10;;;;;;;11.35;60.28;98865.81;5089990;28;40112;-76
2022/04/14 01:42:00;;;;;;;4.10;2.60;;;;;;;11.29;60.27;98866.19;5072240;28;40926;-76
2022/04/14 01:44:28;;;;;;;3.80;2.83;;;;;;;11.23;60.30;98877.22;5090398;28;42949;-76
2022/04/14 01:46:56;;;;;;;2.80;2.30;;;;;;;11.18;60.26;98868.69;5074756;28;41275;-78
2022/04/14 01:49:24;;;;;;;3.43;3.10;;;;;;;11.13;61.73;98861.03;5110108;28;39133;-77
2022/04/14 01:51:51;;;;;;;3.10;2.50;;;;;;;11.10;61.44;98875.34;5127322;27;41848;-76
2022/04/14 01:54:19;;;;;;;3.33;2.83;;;;;;;10.97;61.50;98861.19;5077852;28;41302;-78
2022/04/14 01:56:47;;;;;;;3.70;2.30;;;;;;;11.03;60.90;98874.03;5088862;28;41890;-77
2022/04/14 01:59:16;;;;;;;3.57;3.03;;;;;;;10.70;62.32;98815.25;5072105;28;40884;-77
2022/04/14 02:01:44;;;;;;;4.13;3.00;;;;;;;10.88;64.02;98845.84;5092386;28;41756;-76
2022/04/14 02:04:11;;;;;;;5.03;3.20;;;;;;;10.89;63.15;98858.16;5109416;28;41602;-76
2022/04/14 02:06:39;;;;;;;3.73;3.17;;;;;;;10.84;62.92;98870.88;5109566;28;41369;-77
2022/04/14 02:09:07;;;;;;;4.10;3.43;;;;;;;10.86;62.83;98889.31;5091296;28;39771;-76
2022/04/14 02:11:35;;;;;;;5.63;3.10;;;;;;;10.78;62.92;98881.84;5092753;28;42521;-76
2022/04/14 02:14:02;;;;;;;5.47;3.37;;;;;;;10.71;63.05;98891.13;5094067;27;43410;-76
2022/04/14 02:16:31;;;;;;;2.63;2.43;;;;;;;10.65;62.68;98892.34;5094329;28;45526;-76
2022/04/14 02:18:59;;;;;;;2.77;2.47;;;;;;;10.60;63.51;98893.59;5092308;28;39941;-76
2022/04/14 02:21:27;;;;;;;4.63;3.20;;;;;;;10.45;63.04;98879.50;5092428;28;41805;-77
2022/04/14 02:23:54;;;;;;;4.43;2.73;;;;;;;10.54;63.10;98901.91;5092471;28;42829;-76
2022/04/14 02:26:22;;;;;;;2.93;2.33;;;;;;;10.42;62.70;98890.28;5085927;28;41014;-76
2022/04/14 02:28:49;;;;;;;3.67;2.77;;;;;;;10.46;62.94;98897.09;5095655;28;39011;-76
2022/04/14 02:31:17;;;;;;;4.03;3.10;;;;;;;10.44;63.80;98889.22;5113789;28;41526;-76
2022/04/14 02:33:46;;;;;;;2.87;2.63;;;;;;;10.42;64.08;98893.78;5113839;28;42743;-76
2022/04/14 02:36:14;;;;;;;4.43;3.03;;;;;;;10.37;64.23;98887.94;5113924;28;42073;-76
2022/04/14 02:38:43;;;;;;;3.83;2.93;;;;;;;10.38;64.24;98900.22;5113704;28;38991;-76
2022/04/14 02:41:11;;;;;;;3.03;2.63;;;;;;;10.37;64.11;98902.94;5096676;28;40185;-76
2022/04/14 02:43:39;;;;;;;3.17;2.70;;;;;;;10.34;63.98;98905.78;5114811;28;42498;-76
2022/04/14 02:46:06;;;;;;;2.33;2.10;;;;;;;10.31;64.00;98903.31;5114822;28;42624;-76
2022/04/14 02:48:34;;;;;;;4.37;2.70;;;;;;;10.29;64.07;98908.69;5114759;28;41586;-76
2022/04/14 02:51:03;;;;;;;3.30;2.47;;;;;;;10.27;64.22;98907.94;5113527;28;41165;-76
2022/04/14 02:53:32;;;;;;;2.67;2.43;;;;;;;10.25;64.37;98911.63;5113371;28;42853;-76
2022/04/14 02:56:00;;;;;;;3.97;2.63;;;;;;;10.22;64.16;98912.66;5096567;28;41273;-76
2022/04/14 02:58:29;;;;;;;4.43;3.07;;;;;;;10.08;63.88;98896.72;5112675;28;40382;-76
2022/04/14 03:00:56;;;;;;;4.63;2.90;;;;;;;10.16;64.10;98915.63;5100073;28;41692;-75
2022/04/14 03:03:26;;;;;;;4.90;3.43;;;;;;;10.12;64.60;98913.28;5091705;28;42899;-76
2022/04/14 03:05:53;;;;;;;4.50;3.10;;;;;;;10.04;64.93;98908.44;5092006;28;41097;-76
2022/04/14 03:08:22;;;;;;;3.13;2.80;;;;;;;10.04;64.96;98921.66;5091726;28;39033;-76
2022/04/14 03:10:50;;;;;;;3.77;2.87;;;;;;;10.01;64.63;98921.84;5108835;28;42487;-76
2022/04/14 03:13:20;;;;;;;3.80;2.60;;;;;;;9.87;64.74;98903.31;5108945;28;42629;-77
2022/04/14 03:15:49;;;;;;;3.20;2.90;;;;;;;9.94;64.78;98931.09;5091958;28;41113;-77
2022/04/14 03:18:16;;;;;;;3.60;2.93;;;;;;;9.89;64.93;98933.97;5094714;28;39951;-76
2022/04/14 03:20:45;;;;;;;4.20;2.87;;;;;;;9.87;65.14;98927.09;5112955;27;41649;-76
2022/04/14 03:23:12;;;;;;;3.17;2.70;;;;;;;9.75;65.11;98919.88;5111441;28;41806;-75
2022/04/14 03:25:41;;;;;;;5.90;3.30;;;;;;;9.71;65.44;98914.78;5113116;28;42296;-76
2022/04/14 03:28:08;;;;;;;5.60;3.47;;;;;;;9.81;66.08;98925.66;5092052;28;38927;-76
2022/04/14 03:30:36;;;;;;;4.63;3.30;;;;;;;9.79;65.94;98926.69;5074726;28;41150;-76
2022/04/14 03:33:04;;;;;;;5.40;3.23;;;;;;;9.80;66.04;98926.59;5091117;28;42634;-76
2022/04/14 03:35:31;;;;;;;3.70;2.80;;;;;;;9.79;65.73;98926.69;5074271;28;41051;-76
2022/04/14 03:37:59;;;;;;;3.77;2.33;;;;;;;9.79;65.81;98926.69;5091216;28;39825;-76
2022/04/14 03:40:27;;;;;;;4.23;2.73;;;;;;;9.79;66.18;98926.69;5074238;28;42007;-75
2022/04/14 03:42:56;;;;;;;4.10;2.93;;;;;;;9.78;65.82;98935.56;5074593;28;42138;-76
2022/04/14 03:45:24;;;;;;;3.67;2.83;;;;;;;9.77;65.70;98928.59;5092398;28;42438;-76
2022/04/14 03:47:52;;;;;;;4.00;2.20;;;;;;;9.75;65.71;98943.69;5091450;28;40156;-76
2022/04/14 03:50:19;;;;;;;4.10;2.50;;;;;;;9.73;65.32;98944.63;5091171;28;42849;-75
2022/04/14 03:52:47;;;;;;;2.33;2.13;;;;;;;9.71;65.73;98932.44;5074458;28;43042;-76
2022/04/14 03:55:15;;;;;;;2.93;2.63;;;;;;;9.70;67.40;98923.63;5091157;28;42289;-76
2022/04/14 03:57:42;;;;;;;3.17;2.73;;;;;;;9.70;67.19;98928.94;5092457;28;40896;-77
2022/04/14 04:00:13;;;;;;;3.50;3.00;;;;;;;9.39;66.77;98886.69;5073563;28;40808;-76
2022/04/14 04:02:41;;;;;;;5.03;2.60;;;;;;;9.67;66.69;98944.97;5074289;28;44055;-77
2022/04/14 04:05:09;;;;;;;3.10;2.40;;;;;;;9.65;66.89;98941.56;5090562;28;42278;-76
2022/04/14 04:07:37;;;;;;;5.37;3.10;;;;;;;9.37;66.80;98896.50;5091064;28;39760;-76
2022/04/14 04:10:05;;;;;;;5.10;3.67;;;;;;;9.53;68.25;98920.25;5073881;28;40999;-76
2022/04/14 04:12:33;;;;;;;3.63;3.30;;;;;;;9.63;67.96;98938.16;5090847;28;42895;-77
2022/04/14 04:15:01;;;;;;;3.33;2.70;;;;;;;9.62;67.34;98938.25;5090632;28;42490;-75
2022/04/14 04:17:30;;;;;;;3.57;2.60;;;;;;;9.60;67.17;98954.19;5091535;28;40129;-76
2022/04/14 04:19:58;;;;;;;6.40;2.93;;;;;;;9.58;67.03;98952.56;5124806;27;41693;-76
2022/04/14 04:22:25;;;;;;;2.80;2.53;;;;;;;9.57;67.45;98948.22;5132373;27;42744;-76
2022/04/14 04:24:53;;;;;;;4.63;3.10;;;;;;;9.54;67.54;98946.59;5132032;27;41800;-76
2022/04/14 04:27:21;;;;;;;3.67;2.90;;;;;;;9.42;67.31;98939.38;5089486;28;40855;-76
2022/04/14 04:29:49;;;;;;;5.43;3.40;;;;;;;9.51;67.00;98960.03;5094415;28;40652;-77
2022/04/14 04:32:16;;;;;;;2.73;2.53;;;;;;;9.44;67.17;98953.34;5111469;28;42351;-76
2022/04/14 04:34:51;;;;;;;3.50;2.33;;;;;;;9.50;66.69;98973.31;5094595;28;42579;-76
2022/04/14 04:37:19;;;;;;;3.33;2.73;;;;;;;9.51;66.79;98975.03;5074698;28;38770;-76
2022/04/14 04:39:47;;;;;;;3.27;2.77;;;;;;;9.50;66.67;98978.59;5074203;28;40808;-76
2022/04/14 04:42:14;;;;;;;2.47;2.17;;;;;;;9.47;66.76;98971.69;5074037;28;42823;-76
2022/04/14 04:44:42;;;;;;;3.93;2.30;;;;;;;9.47;67.84;98963.75;5082251;28;41281;-76
2022/04/14 04:47:10;;;;;;;4.00;2.80;;;;;;;9.49;68.14;98961.88;5093493;28;40640;-77
2022/04/14 04:49:37;;;;;;;4.17;3.00;;;;;;;9.50;67.77;98968.88;5093103;28;41174;-76
2022/04/14 04:52:08;;;;;;;3.00;2.40;;;;;;;9.55;67.74;98977.38;5093173;28;41971;-76
2022/04/14 04:54:35;;;;;;;4.33;2.87;;;;;;;9.61;67.97;98978.84;5111843;28;42834;-77
2022/04/14 04:57:03;;;;;;;3.53;3.17;;;;;;;9.67;67.99;98981.97;5110368;28;40794;-76
2022/04/14 04:59:31;;;;;;;4.03;3.17;;;;;;;9.75;67.25;98989.50;5110216;28;41297;-77
2022/04/14 05:01:59;;;;;;;3.90;3.27;;;;;;;9.84;66.77;98993.41;5111703;28;42796;-76
2022/04/14 05:04:27;;;;;;;2.90;2.40;;;;;;;9.93;66.44;98992.88;5109972;28;43150;-76
2022/04/14 05:06:54;;;;;;;3.23;2.93;;;;;;;10.02;66.20;98995.81;5111600;28;40544;-76
2022/04/14 05:09:24;;;;;;;5.67;3.50;;;;;;;10.13;66.04;99000.53;5109914;28;42297;-76
2022/04/14 05:11:52;;;;;;;2.80;2.40;;;;;;;10.20;65.60;98991.31;5093128;28;41825;-76
2022/04/14 05:14:19;;;;;;;3.27;2.60;;;;;;;10.30;65.41;98995.09;5110820;28;42554;-76
2022/04/14 05:16:47;;;;;;;3.23;2.40;;;;;;;10.29;65.20;98985.44;5082588;28;39687;-76
2022/04/14 05:19:14;;;;;;;3.67;2.67;;;;;;;10.52;65.22;99007.06;5090127;28;42663;-76
2022/04/14 05:21:43;;;;;;;3.70;3.00;;;;;;;10.53;64.87;99008.75;5083597;28;41609;-76
2022/04/14 05:24:10;;;;;;;4.40;2.90;;;;;;;10.51;64.75;99002.72;5103673;28;42092;-76
2022/04/14 05:26:40;;;;;;;3.63;3.20;;;;;;;10.73;64.87;99026.97;5090503;28;39204;-75
2022/04/14 05:29:09;;;;;;;3.57;3.17;;;;;;;10.81;66.00;99014.09;5107137;28;41771;-76
2022/04/14 05:31:36;;;;;;;4.27;3.73;;;;;;;10.88;65.90;99018.06;5110618;28;41747;-76
2022/04/14 05:34:04;;;;;;;3.93;3.23;;;;;;;10.98;65.28;99016.59;5110707;28;43034;-75
2022/04/14 05:36:32;;;;;;;4.03;3.17;;;;;;;11.07;65.02;99029.25;5094055;28;40014;-76
2022/04/14 05:38:59;;;;;;;4.37;3.60;;;;;;;11.12;65.61;99016.59;5110646;28;42695;-76
2022/04/14 05:41:27;;;;;;;3.97;3.10;;;;;;;11.15;65.27;99023.47;5111998;28;43592;-76
2022/04/14 05:43:56;;;;;;;4.20;3.27;;;;;;;11.19;65.16;99018.84;5110662;28;41162;-76
2022/04/14 05:46:24;;;;;;;5.17;3.23;;;;;;;11.25;65.68;99015.81;5111834;28;41019;-76
2022/04/14 05:48:52;;;;;;;4.13;3.07;;;;;;;11.33;65.27;99025.00;5093691;28;41468;-76
2022/04/14 05:51:20;;;;;;;4.23;2.43;;;;;;;11.46;64.66;99030.38;5110747;28;42882;-76
2022/04/14 05:53:50;;;;;;;4.47;3.37;;;;;;;11.52;64.43;99029.97;5109937;28;42310;-76
2022/04/14 05:56:18;;;;;;;4.10;2.63;;;;;;;11.69;64.40;99035.06;5105113;28;41188;-78
2022/04/14 05:58:45;;;;;;;3.50;2.60;;;;;;;11.82;64.12;99038.66;5102058;28;42621;-76
2022/04/14 06:01:14;;;;;;;3.33;2.70;;;;;;;11.95;63.61;99041.38;5107592;28;41928;-76
2022/04/14 06:03:42;;;;;;;3.10;2.40;;;;;;;12.13;63.30;99047.25;5108034;28;42326;-76
2022/04/14 06:06:12;;;;;;;5.57;3.40;;;;;;;12.34;63.44;99043.22;5092510;28;40190;-77
2022/04/14 06:08:39;;;;;;;4.50;3.70;;;;;;;12.62;62.88;99047.50;5106989;28;42696;-76
2022/04/14 06:11:07;;;;;;;5.03;4.03;;;;;;;12.81;62.64;99041.78;5110321;28;42979;-76
2022/04/14 06:13:35;;;;;;;4.80;3.87;;;;;;;12.91;62.18;99042.84;5109421;28;41228;-76
2022/04/14 06:16:03;;;;;;;4.00;3.33;;;;;;;13.02;62.22;99035.00;5093475;28;38842;-76
2022/04/14 06:18:32;;;;;;;4.13;3.73;;;;;;;13.20;61.81;99048.84;5109326;28;40570;-76
2022/04/14 06:20:59;;;;;;;4.13;3.53;;;;;;;13.42;61.64;99053.50;5110276;28;44662;-76
2022/04/14 06:23:27;;;;;;;6.03;3.60;;;;;;;13.66;61.09;99062.41;5109667;28;42126;-76
2022/04/14 06:25:55;;;;;;;3.60;3.20;;;;;;;13.91;60.80;99057.00;5121594;27;39935;-77
2022/04/14 06:28:22;;;;;;;5.23;3.50;;;;;;;14.14;60.42;99062.44;5118021;27;40550;-76
2022/04/14 06:30:51;;;;;;;3.90;3.20;;;;;;;14.28;59.68;99064.94;5111372;28;42746;-76
2022/04/14 06:33:20;;;;;;;5.00;3.63;;;;;;;14.33;59.83;99062.78;5108914;28;41019;-76
2022/04/14 06:35:49;;;;;;;4.53;4.13;;;;;;;14.35;59.38;99072.34;5110165;28;38830;-76
2022/04/14 06:38:19;;;;;;;3.37;2.87;;;;;;;14.40;59.34;99071.19;5116650;27;42442;-76
2022/04/14 06:40:47;;;;;;;4.37;3.70;;;;;;;14.50;58.93;99073.06;5097869;28;44162;-76
2022/04/14 06:43:14;;;;;;;4.30;3.43;;;;;;;14.51;59.06;99066.75;5108469;28;42605;-76
2022/04/14 06:45:42;;;;;;;4.37;3.97;;;;;;;14.69;58.47;99080.53;5109982;28;39323;-76
2022/04/14 06:48:10;;;;;;;5.27;4.13;;;;;;;14.78;58.88;99062.97;5092638;28;40736;-76
2022/04/14 06:50:38;;;;;;;7.60;4.10;;;;;;;15.09;58.34;99078.31;5092334;28;43554;-76
2022/04/14 06:53:07;;;;;;;4.80;3.63;;;;;;;15.34;57.92;99082.59;5102696;28;40819;-76
2022/04/14 06:55:36;;;;;;;3.80;3.13;;;;;;;15.62;57.44;99086.63;5109471;27;40838;-76
2022/04/14 06:58:04;;;;;;;5.03;3.67;;;;;;;15.80;57.13;99085.19;5094642;28;40565;-76
2022/04/14 07:00:32;;;;;;;5.43;4.03;;;;;;;15.99;56.97;99085.38;5113433;28;43527;-76
2022/04/14 07:02:59;;;;;;;5.67;5.07;;;;;;;16.08;56.44;99071.28;5104811;28;41232;-76
2022/04/14 07:05:27;;;;;;;8.10;4.70;;;;;;;16.42;55.80;99088.06;5097785;28;40770;-77
2022/04/14 07:07:54;;;;;;;5.33;4.43;;;;;;;16.86;54.94;99103.09;5121078;27;42741;-77
2022/04/14 07:10:24;;;;;;;5.13;4.27;;;;;;;17.28;53.84;99103.09;5117281;28;42761;-77
2022/04/14 07:12:51;;;;;;;6.27;4.33;;;;;;;17.70;53.17;99108.41;5116005;28;43755;-77
2022/04/14 07:15:18;;;;;;;5.33;4.33;;;;;;;18.00;51.98;99111.06;5099167;28;38904;-77
2022/04/14 07:17:46;;;;;;;6.90;4.47;;;;;;;18.37;51.84;99103.25;5115546;28;41947;-78
2022/04/14 07:20:14;;;;;;;8.07;5.50;;;;;;;18.75;51.42;99110.50;5090765;28;43130;-77
2022/04/14 07:22:43;;;;;;;6.30;5.03;;;;;;;19.06;50.92;99107.66;5086632;28;43729;-77
2022/04/14 07:25:11;;;;;;;6.13;5.07;;;;;;;19.27;50.36;99102.97;5112364;28;39151;-77
2022/04/14 07:27:40;;;;;;;7.27;6.33;;;;;;;19.25;49.99;99064.66;5091477;28;41652;-78
2022/04/14 07:30:08;;;;;;;6.33;5.70;;;;;;;20.04;49.54;99108.91;5095329;28;42707;-77
2022/04/14 07:32:37;;;;;;;7.53;5.60;;;;;;;20.66;48.50;99119.88;5112973;28;43350;-77
2022/04/14 07:35:05;;;;;;;9.13;6.90;;;;;;;21.17;48.01;99105.69;5112265;28;39071;-77
2022/04/14 07:37:33;;;;;;;6.87;6.17;;;;;;;21.98;46.60;99118.84;5091527;28;42817;-77
2022/04/14 07:40:01;;;;;;;6.83;5.33;;;;;;;22.72;43.97;99135.13;5091592;28;41414;-77
2022/04/14 07:42:32;;;;;;;8.70;6.10;;;;;;;23.27;43.53;99129.94;5094544;28;43179;-77
2022/04/14 07:45:02;;;;;;;11.07;6.67;;;;;;;23.61;42.95;99113.53;5111633;28;41479;-78
2022/04/14 07:47:30;;;;;;;10.03;6.43;;;;;;;23.98;42.91;99144.56;5112034;28;42565;-77
2022/04/14 07:49:57;;;;;;;10.43;7.37;;;;;;;23.91;42.74;99148.97;5104307;28;43534;-78
2022/04/14 07:52:25;;;;;;;8.27;7.47;;;;;;;24.06;42.59;99149.09;5108076;27;42208;-77
2022/04/14 07:54:53;;;;;;;9.10;8.20;;;;;;;24.03;41.80;99158.41;5093760;28;39937;-77
2022/04/14 07:57:20;;;;;;;9.83;7.67;;;;;;;24.20;41.43;99159.19;5102746;28;42788;-78
2022/04/14 07:59:47;;;;;;;13.87;8.07;;;;;;;24.45;42.09;99149.97;5098203;27;42835;-80
2022/04/14 08:02:19;;;;;;;9.23;7.87;;;;;;;24.95;41.25;99145.97;5085274;28;41524;-78
2022/04/14 08:04:47;;;;;;;9.77;7.07;;;;;;;25.77;40.38;99155.09;5107762;27;39889;-78
2022/04/14 08:07:15;;;;;;;10.37;8.17;;;;;;;26.62;37.75;99176.34;5112641;27;41940;-78
2022/04/14 08:09:42;;;;;;;9.63;8.23;;;;;;;27.58;35.30;99186.78;5112685;27;42877;-79
2022/04/14 08:12:12;;;;;;;9.87;8.63;;;;;;;28.44;34.84;99195.56;5106150;28;43234;-78
2022/04/14 08:14:40;;;;;;;10.07;8.93;;;;;;;28.75;33.86;99198.63;5111127;28;40864;-78
2022/04/14 08:17:07;;;;;;;11.43;7.50;;;;;;;29.22;33.11;99194.19;5109302;28;42763;-78
2022/04/14 08:19:40;;;;;;;9.40;7.67;;;;;;;29.62;32.68;99206.84;5111711;28;42681;-78
2022/04/14 08:22:10;;;;;;;8.90;7.77;;;;;;;30.40;31.15;99209.72;5111254;27;42443;-77
2022/04/14 08:24:38;;;;;;;8.67;7.87;;;;;;;31.46;30.35;99221.03;5132338;27;40226;-77
2022/04/14 08:27:05;;;;;;;10.47;7.40;;;;;;;32.40;29.36;99223.59;5118677;27;42275;-80
2022/04/14 08:29:33;;;;;;;7.97;7.27;;;;;;;33.19;28.00;99232.75;5122861;27;43661;-76
2022/04/14 08:32:03;;;;;;;8.68;7.10;;;;;;;34.05;27.64;99225.97;5094099;28;41424;-75
2022/04/14 08:34:30;;;;;;;9.75;8.77;;;;;;;34.83;25.41;99239.31;5094914;28;41148;-76
2022/04/14 08:37:00;;;;;;;7.97;6.43;;;;;;;35.19;25.17;99241.72;5111450;28;42511;-78
2022/04/14 08:39:29;;;;;;;9.25;7.57;;;;;;;35.80;24.78;99244.78;5094379;28;42879;-77
2022/04/14 08:42:04;;;;;;;8.68;7.20;;;;;;;35.48;23.31;99250.00;5094416;28;41210;-77
2022/04/14 08:44:37;;;;;;;9.20;8.23;;;;;;;35.02;24.25;99238.06;5108064;28;40565;-76
2022/04/14 08:47:08;;;;;;;9.37;8.47;;;;;;;34.96;24.72;99240.97;5104473;28;41706;-77
2022/04/14 08:49:36;;;;;;;8.00;7.32;;;;;;;35.03;23.67;99234.22;5107827;28;42720;-77
2022/04/14 08:52:06;;;;;;;9.73;8.77;;;;;;;35.34;23.92;99240.34;5092219;28;41224;-76
2022/04/14 08:54:34;;;;;;;9.70;8.00;;;;;;;35.40;23.67;99244.88;5112522;28;39998;-78
2022/04/14 08:57:02;;;;;;;8.27;7.50;;;;;;;35.32;24.01;99239.75;5111773;28;42788;-81
2022/04/14 08:59:30;;;;;;;7.93;7.13;;;;;;;35.75;23.17;99226.22;5112889;27;41877;-77
2022/04/14 09:02:03;;;;;;;8.82;8.02;;;;;;;36.29;23.32;99232.91;5120222;27;42465;-80
2022/04/14 09:04:33;;;;;;;8.45;7.65;;;;;;;36.87;21.65;99236.19;5111670;28;39107;-80
2022/04/14 09:07:00;;;;;;;8.13;7.32;;;;;;;37.23;21.43;99252.09;5111446;28;42452;-81
2022/04/14 09:09:29;;;;;;;7.50;6.85;;;;;;;37.28;21.32;99251.34;5111470;28;43571;-84
2022/04/14 09:11:57;;;;;;;6.95;6.32;;;;;;;36.94;21.91;99236.84;5110453;28;42282;-82
2022/04/14 09:14:24;;;;;;;7.43;6.75;;;;;;;36.80;21.43;99243.84;5090505;28;38630;-80
2022/04/14 09:16:52;;;;;;;7.38;5.95;;;;;;;36.48;22.72;99236.19;5092343;28;41679;-80
2022/04/14 09:19:21;;;;;;;8.57;7.75;;;;;;;35.81;22.29;99244.53;5108869;28;41999;-77
2022/04/14 09:21:59;;;;;;;8.83;8.03;;;;;;;34.75;24.09;99228.66;5111197;28;43235;-79
2022/04/14 09:24:44;;;;;;;7.10;6.30;;;;;;;34.04;25.19;99235.28;5094675;28;39914;-82
2022/04/14 09:27:25;;;;;;;8.33;7.53;;;;;;;33.58;24.97;99214.88;5109517;27;42310;-80
2022/04/14 09:29:54;;;;;;;10.07;8.97;;;;;;;33.64;25.50;99222.16;5103903;28;43424;-79
2022/04/14 09:32:30;;;;;;;8.57;7.77;;;;;;;33.79;24.62;99244.56;5096228;28;42940;-81
2022/04/14 09:34:59;;;;;;;7.40;6.63;;;;;;;34.01;24.42;99246.75;5110447;28;38938;-83
2022/04/14 09:37:27;;;;;;;7.63;6.57;;;;;;;34.45;23.44;99254.44;5092040;28;40310;-88
2022/04/14 09:40:10;;;;;;;6.17;5.60;;;;;;;34.08;23.67;99253.81;5108160;28;41720;-80
2022/04/14 09:42:40;;;;;;;6.73;6.07;;;;;;;33.96;24.80;99250.22;5096213;28;42285;-79
2022/04/14 09:45:18;;;;;;;9.57;7.40;;;;;;;34.21;23.09;99258.25;5094342;28;38737;-79
2022/04/14 09:47:46;;;;;;;9.40;6.07;;;;;;;34.41;23.32;99260.66;5093810;28;40958;-78
2022/04/14 09:50:29;;;;;;;8.80;6.53;;;;;;;34.56;23.34;99250.84;5111551;28;43014;-85
2022/04/14 09:52:57;;;;;;;6.97;6.20;;;;;;;34.89;23.45;99257.59;5109321;28;42537;-79
2022/04/14 09:55:26;;;;;;;6.37;5.77;;;;;;;34.94;23.33;99254.97;5094476;28;38808;-84
2022/04/14 09:58:12;;;;;;;6.90;5.80;;;;;;;34.47;23.43;99255.03;5111262;28;41736;-80
2022/04/14 10:00:42;;;;;;;9.23;7.37;;;;;;;33.96;23.45;99252.97;5093611;28;41658;-80
2022/04/14 10:03:15;;;;;;;10.27;8.57;;;;;;;33.40;24.13;99247.91;5116113;27;42272;-79
2022/04/14 10:05:46;;;;;;;8.47;7.70;;;;;;;33.39;25.15;99230.59;5091247;28;39339;-79
2022/04/14 10:08:14;;;;;;;6.43;5.80;;;;;;;33.94;24.11;99235.03;5102584;28;41162;-85
2022/04/14 10:10:46;;;;;;;7.30;6.57;;;;;;;34.46;24.53;99239.59;5094029;27;43918;-79
2022/04/14 10:13:16;;;;;;;7.37;6.67;;;;;;;34.68;23.49;99225.22;5100955;27;42513;-85
2022/04/14 10:15:46;;;;;;;7.33;5.80;;;;;;;35.32;23.22;99248.03;5131651;27;40670;-86
2022/04/14 10:18:15;;;;;;;8.00;6.70;;;;;;;35.70;22.14;99250.94;5098817;28;41579;-81
2022/04/14 10:20:44;;;;;;;6.83;6.23;;;;;;;35.77;22.47;99251.63;5101805;28;43982;-82
2022/04/14 10:23:14;;;;;;;6.27;5.33;;;;;;;35.86;22.20;99258.38;5108311;28;42518;-82
2022/04/14 10:25:43;;;;;;;7.53;6.60;;;;;;;36.35;20.49;99264.19;5101357;28;40276;-84
2022/04/14 10:28:14;;;;;;;7.25;6.07;;;;;;;37.04;20.11;99267.34;5110496;28;41502;-84
2022/04/14 10:30:46;;;;;;;8.63;7.18;;;;;;;37.60;19.23;99265.19;5094429;28;45178;-81
2022/04/14 10:33:13;;;;;;;6.35;5.78;;;;;;;37.93;19.27;99266.94;5116319;27;42142;-83
2022/04/14 10:35:41;;;;;;;7.03;6.38;;;;;;;38.08;18.46;99273.41;5114392;28;40063;-87
2022/04/14 10:38:15;;;;;;;7.25;6.30;;;;;;;38.03;18.96;99270.59;5113996;28;43004;-84
2022/04/14 10:40:48;;;;;;;6.40;5.80;;;;;;;38.41;19.33;99249.31;5131665;27;42630;-84
2022/04/14 10:43:20;;;;;;;6.70;5.47;;;;;;;39.17;18.36;99271.88;5110775;28;42437;-86
2022/04/14 10:45:51;;;;;;;7.22;6.53;;;;;;;39.81;17.96;99277.03;5128619;27;40907;-83
2022/04/14 10:48:30;;;;;;;6.43;5.85;;;;;;;40.64;16.86;99277.56;5115158;28;42669;-80
2022/04/14 10:51:24;;;;;;;6.35;5.15;;;;;;;40.70;16.99;99268.06;5111389;28;43541;-82
2022/04/14 10:53:57;;;;;;;7.40;6.70;;;;;;;40.53;17.38;99259.25;5113568;28;41268;-81
2022/04/14 10:56:43;;;;;;;7.40;5.60;;;;;;;40.41;18.62;99247.63;5112371;28;39924;-83
2022/04/14 10:59:12;;;;;;;7.70;7.00;;;;;;;40.14;18.62;99250.69;5111270;28;43048;-82
2022/04/14 11:01:57;;;;;;;6.57;5.97;;;;;;;40.06;18.64;99254.84;5115455;28;43430;-79
2022/04/14 11:04:31;;;;;;;6.93;6.28;;;;;;;39.76;19.05;99249.28;5096019;28;43099;-87
2022/04/14 11:07:01;;;;;;;6.93;5.93;;;;;;;39.77;18.76;99250.97;5112621;28;41001;-82
2022/04/14 11:09:52;;;;;;;6.72;5.95;;;;;;;40.05;18.97;99242.09;5113164;28;41932;-81
2022/04/14 11:12:23;;;;;;;7.40;6.70;;;;;;;39.95;18.38;99246.81;5091098;28;43121;-81
2022/04/14 11:14:53;;;;;;;7.07;6.38;;;;;;;39.95;18.32;99246.81;5111974;28;41378;-82
2022/04/14 11:17:59;;;;;;;6.05;5.47;;;;;;;40.24;18.38;99241.50;5097199;28;40075;-81
2022/04/14 11:20:54;;;;;;;7.95;7.15;;;;;;;40.17;17.91;99250.97;5103208;28;41770;-82
2022/04/14 11:23:26;;;;;;;8.20;6.13;;;;;;;40.02;18.96;99222.41;5108915;27;43591;-88
2022/04/14 11:26:10;;;;;;;9.35;7.75;;;;;;;40.35;18.76;99229.31;5097370;28;43106;-81
2022/04/14 11:28:43;;;;;;;7.28;6.57;;;;;;;40.51;18.23;99239.28;5110977;28;40215;-82
2022/04/14 11:31:31;;;;;;;6.20;5.68;;;;;;;40.13;18.84;99224.88;5101500;28;40585;-80
2022/04/14 11:33:59;;;;;;;9.10;7.60;;;;;;;39.77;18.38;99239.84;5088704;28;41460;-85
2022/04/14 11:36:40;;;;;;;7.35;6.75;;;;;;;39.01;18.22;99236.91;5096886;28;41152;-83
2022/04/14 11:39:09;;;;;;;8.13;7.33;;;;;;;38.23;19.70;99224.84;5111398;28;40881;-78
2022/04/14 11:41:41;;;;;;;8.40;7.47;;;;;;;37.99;19.40;99224.38;5113229;28;41528;-85
2022/04/14 11:44:12;;;;;;;8.40;7.40;;;;;;;38.12;20.07;99217.56;5111324;28;43693;-82